Météo Nord-Pas-de-Calais   La météo au plus près de chez vous

Station météorologique

Observations météo à Houdelaincourt (55248)

55248001 390 m Dernier relevé à 05:54
13.9°C
Humidité 76 % Vent 10.4 km/h 1023 hPa

Journée consultée

Jeudi 3 Septembre 2026

Synthèse de la journée

Périodes de référence en UTC

Température maximale

23.6°C

à 15:00

06h 06h

Température minimale

12°C

à 04:00

18h 18h

Rafale maximale

16 km/h

à 04:54

00h 00h

Précipitations

0 mm

Cumul quotidien

06h 06h

Ensoleillement

0h 0 mins

Durée quotidienne

00h 00h

Graphiques de la journée

Heure locale Réduire

Données détaillées

Relevés météo

Pas de 6 minutes Afficher les relevés infra-horaires
Relevés météo détaillés à Houdelaincourt pour le Jeudi 3 Septembre 2026
Heure Température °C Point de rosée °C Humidité % Vent moyen (raf.), km/h Précipitations mm Ensoleillement min Rayonnement global W/m² Pression hPa
05:54 13.9 °C 9.1 °C 73 % 10 km/h (13 km/h) 0 mm0 mm 0 min 0 W/m² 1022.9 hPa
05:48 13.9 °C 8.9 °C 72 % 9 km/h (12 km/h) 0 mm0 mm 0 min 0 W/m² 1023 hPa
05:42 14 °C 9 °C 72 % 9 km/h (13 km/h) 0 mm0 mm 0 min 0 W/m² 1022.9 hPa
05:36 14 °C 9 °C 72 % 10 km/h (13 km/h) 0 mm0 mm 0 min 0 W/m² 1022.9 hPa
05:30 13.9 °C 8.9 °C 72 % 10 km/h (12 km/h) 0 mm0 mm 0 min 0 W/m² 1022.9 hPa
05:24 13.9 °C 9.1 °C 73 % 10 km/h (13 km/h) 0 mm0 mm 0 min 0 W/m² 1022.9 hPa
05:18 13.7 °C 9.1 °C 74 % 10 km/h (13 km/h) 0 mm0 mm 0 min 0 W/m² 1022.9 hPa
05:12 13.7 °C 9.3 °C 75 % 10 km/h (14 km/h) 0 mm0 mm 0 min 0 W/m² 1023 hPa
05:06 13.9 °C 9.3 °C 74 % 10 km/h (14 km/h) 0 mm0 mm 0 min 0 W/m² 1022.9 hPa
05:00 13.7 °C 9.5 °C 76 % 10 km/h (14 km/h) 0 mm0 mm 0 min 0 W/m² 1023 hPa
04:54 13.6 °C 9.4 °C 76 % 10 km/h (16 km/h) 0 mm0 mm 0 min 0 W/m² 1023 hPa
04:48 13.7 °C 9.5 °C 76 % 10 km/h (14 km/h) 0 mm0 mm 0 min 0 W/m² 1022.9 hPa
04:42 13.7 °C 9.5 °C 76 % 9 km/h (13 km/h) 0 mm0 mm 0 min 0 W/m² 1022.9 hPa
04:36 13.5 °C 9.5 °C 77 % 9 km/h (12 km/h) 0 mm0 mm 0 min 0 W/m² 1022.9 hPa
04:30 13.4 °C 9.6 °C 78 % 9 km/h (12 km/h) 0 mm0 mm 0 min 0 W/m² 1023 hPa
04:24 13.3 °C 9.7 °C 79 % 10 km/h (13 km/h) 0 mm0 mm 0 min 0 W/m² 1023 hPa
04:18 13.1 °C 9.7 °C 80 % 9 km/h (13 km/h) 0 mm0 mm 0 min 0 W/m² 1023 hPa
04:12 12.6 °C 9.6 °C 82 % 8 km/h (10 km/h) 0 mm0 mm 0 min 0 W/m² 1023.1 hPa
04:06 12.3 °C 9.7 °C 84 % 8 km/h (10 km/h) 0 mm0 mm 0 min 0 W/m² 1023 hPa
04:00 12 °C 9.7 °C 86 % 8 km/h (10 km/h) 0 mm0 mm 0 min 0 W/m² 1023.2 hPa
03:54 12.3 °C 9.7 °C 84 % 9 km/h (12 km/h) 0 mm0 mm 0 min 0 W/m² 1023.1 hPa
03:48 12.8 °C 9.8 °C 82 % 9 km/h (12 km/h) 0 mm0 mm 0 min 0 W/m² 1023 hPa
03:42 12.9 °C 9.9 °C 82 % 8 km/h (11 km/h) 0 mm0 mm 0 min 0 W/m² 1023.1 hPa
03:36 13.2 °C 9.8 °C 80 % 8 km/h (10 km/h) 0 mm0 mm 0 min 0 W/m² 1023.2 hPa
03:30 13.5 °C 10.1 °C 80 % 8 km/h (11 km/h) 0 mm0 mm 0 min 0 W/m² 1023.1 hPa
03:24 13.5 °C 10.1 °C 80 % 9 km/h (11 km/h) 0 mm0 mm 0 min 0 W/m² 1023.2 hPa
03:18 13.6 °C 10.2 °C 80 % 8 km/h (10 km/h) 0 mm0 mm 0 min 0 W/m² 1023.3 hPa
03:12 13.7 °C 9.9 °C 78 % 6 km/h (8 km/h) 0 mm0 mm 0 min 0 W/m² 1023.2 hPa
03:06 13.2 °C 9.8 °C 80 % 5 km/h (7 km/h) 0 mm0 mm 0 min 0 W/m² 1023.3 hPa
03:00 13.1 °C 9.9 °C 81 % 5 km/h (6 km/h) 0 mm0 mm 0 min 0 W/m² 1023.3 hPa
02:54 13.6 °C 9.8 °C 78 % 6 km/h (8 km/h) 0 mm0 mm 0 min 0 W/m² 1023.2 hPa
02:48 13.9 °C 9.9 °C 77 % 6 km/h (8 km/h) 0 mm0 mm 0 min 0 W/m² 1023.2 hPa
02:42 13.5 °C 10.1 °C 80 % 6 km/h (8 km/h) 0 mm0 mm 0 min 0 W/m² 1023.2 hPa
02:36 13.7 °C 10.1 °C 79 % 5 km/h (7 km/h) 0 mm0 mm 0 min 0 W/m² 1023.2 hPa
02:30 13.5 °C 10.1 °C 80 % 5 km/h (6 km/h) 0 mm0 mm 0 min 0 W/m² 1023.3 hPa
02:24 13.4 °C 10.2 °C 81 % 4 km/h (5 km/h) 0 mm0 mm 0 min 0 W/m² 1023.4 hPa
02:18 13.3 °C 10.1 °C 81 % 4 km/h (5 km/h) 0 mm0 mm 0 min 0 W/m² 1023.4 hPa
02:12 13.7 °C 10.1 °C 79 % 4 km/h (5 km/h) 0 mm0 mm 0 min 0 W/m² 1023.2 hPa
02:06 14 °C 10 °C 77 % 4 km/h (5 km/h) 0 mm0 mm 0 min 0 W/m² 1023.2 hPa
02:00 14.4 °C 9.8 °C 74 % 5 km/h (5 km/h) 0 mm0 mm 0 min 0 W/m² 1023.2 hPa
01:54 14.7 °C 9.9 °C 73 % 4 km/h (5 km/h) 0 mm0 mm 0 min 0 W/m² 1023.2 hPa
01:48 14.8 °C 10 °C 73 % 4 km/h (6 km/h) 0 mm0 mm 0 min 0 W/m² 1023.2 hPa
01:42 14.9 °C 10.1 °C 73 % 5 km/h (6 km/h) 0 mm0 mm 0 min 0 W/m² 1023.1 hPa
01:36 14.9 °C 10.1 °C 73 % 5 km/h (6 km/h) 0 mm0 mm 0 min 0 W/m² 1023.2 hPa
01:30 14.7 °C 10.1 °C 74 % 4 km/h (5 km/h) 0 mm0 mm 0 min 0 W/m² 1023.3 hPa
01:24 14.9 °C 9.9 °C 72 % 4 km/h (5 km/h) 0 mm0 mm 0 min 0 W/m² 1023.2 hPa
01:18 15.1 °C 9.9 °C 71 % 3 km/h (5 km/h) 0 mm0 mm 0 min 0 W/m² 1023.2 hPa
01:12 15.1 °C 10.1 °C 72 % 3 km/h (4 km/h) 0 mm0 mm 0 min 0 W/m² 1023.2 hPa
01:06 15.1 °C 10.1 °C 72 % 4 km/h (5 km/h) 0 mm0 mm 0 min 0 W/m² 1023.2 hPa
01:00 15.2 °C 10 °C 71 % 3 km/h (5 km/h) 0 mm0 mm 0 min 0 W/m² 1023.2 hPa
00:54 15.3 °C 10.1 °C 71 % 3 km/h (5 km/h) 0 mm0 mm 0 min 0 W/m² 1023.1 hPa
00:48 15.4 °C 10.2 °C 71 % 4 km/h (6 km/h) 0 mm0 mm 0 min 0 W/m² 1023 hPa
00:42 15.9 °C 10 °C 68 % 3 km/h (5 km/h) 0 mm0 mm 0 min 0 W/m² 1023 hPa
00:36 16.4 °C 10 °C 66 % 0 km/h (4 km/h) 0 mm0 mm 0 min 0 W/m² 1023 hPa
00:30 16.5 °C 10.1 °C 66 % 0 km/h (3 km/h) 0 mm0 mm 0 min 0 W/m² 1022.9 hPa
00:24 16.7 °C 10.1 °C 65 % 0 km/h (3 km/h) 0 mm0 mm 0 min 0 W/m² 1022.9 hPa
00:18 16.8 °C 10.2 °C 65 % 0 km/h (0 km/h) 0 mm0 mm 0 min 0 W/m² 1022.9 hPa
00:12 16.9 °C 10 °C 64 % 0 km/h (2 km/h) 0 mm0 mm 0 min 0 W/m² 1022.9 hPa
00:06 16.7 °C 10.3 °C 66 % 0 km/h (3 km/h) 0 mm0 mm 0 min 0 W/m² 1022.9 hPa
00:00 17.1 °C 10.2 °C 64 % 0 km/h (3 km/h) 0 mm0 mm 0 min 0 W/m² 1022.9 hPa

Données via Météo-France

Relevés météo à Houdelaincourt

Cette page rassemble les observations de la station de Houdelaincourt : température, humidité, vent, précipitations et pression atmosphérique. Les graphiques facilitent le suivi de la journée, tandis que le tableau donne accès aux mesures horaires et infra-horaires disponibles.

Pour replacer ces mesures dans leur contexte, consultez la climatologie de Houdelaincourt. Retrouvez aussi la carte des observations météo en temps réel.